createdAt,value
2023-08-07T00:00:27.851Z,96.25
2023-08-07T00:02:55.698Z,96.29
2023-08-07T00:05:23.788Z,96.30
2023-08-07T00:07:51.563Z,96.26
2023-08-07T00:10:19.859Z,96.14
2023-08-07T00:12:48.100Z,96.23
2023-08-07T00:15:15.929Z,96.24
2023-08-07T00:17:43.916Z,96.26
2023-08-07T00:20:12.136Z,96.24
2023-08-07T00:22:40.000Z,96.23
2023-08-07T00:25:09.010Z,96.36
2023-08-07T00:27:36.897Z,96.27
2023-08-07T00:30:05.230Z,96.31
2023-08-07T00:32:33.217Z,96.27
2023-08-07T00:35:01.707Z,96.31
2023-08-07T00:37:29.909Z,96.27
2023-08-07T00:39:57.852Z,96.17
2023-08-07T00:42:25.662Z,96.24
2023-08-07T00:44:54.456Z,96.12
2023-08-07T00:47:22.478Z,96.32
2023-08-07T00:49:51.621Z,96.47
2023-08-07T00:52:20.741Z,96.33
2023-08-07T00:54:48.737Z,96.33
2023-08-07T00:57:18.670Z,96.26
2023-08-07T00:59:46.744Z,96.29
2023-08-07T01:02:15.243Z,96.25
2023-08-07T01:04:43.680Z,96.16
2023-08-07T01:07:11.632Z,96.16
2023-08-07T01:09:39.739Z,96.37
2023-08-07T01:12:30.088Z,96.40
2023-08-07T01:15:15.796Z,96.28
2023-08-07T01:17:45.941Z,96.30
2023-08-07T01:20:14.740Z,96.31
2023-08-07T01:22:42.578Z,96.25
2023-08-07T01:25:10.459Z,96.10
2023-08-07T01:28:47.488Z,96.25
2023-08-07T01:31:20.593Z,96.13
2023-08-07T01:34:06.140Z,96.16
2023-08-07T01:36:36.198Z,96.29
2023-08-07T01:39:08.029Z,96.10
2023-08-07T01:41:39.169Z,96.22
2023-08-07T01:44:07.594Z,96.11
2023-08-07T01:46:35.391Z,96.25
2023-08-07T01:49:04.222Z,96.36
2023-08-07T01:51:32.223Z,96.42
2023-08-07T01:54:00.125Z,96.33
2023-08-07T01:56:28.117Z,96.33
2023-08-07T01:58:56.050Z,96.35
2023-08-07T02:01:24.119Z,96.41
2023-08-07T02:03:52.076Z,96.41
2023-08-07T02:06:20.226Z,96.43
2023-08-07T02:08:48.131Z,96.58
2023-08-07T02:11:17.079Z,96.57
2023-08-07T02:13:44.965Z,96.63
2023-08-07T02:16:15.817Z,96.37
2023-08-07T02:18:47.002Z,96.34
2023-08-07T02:21:19.630Z,96.50
2023-08-07T02:23:50.161Z,96.41
2023-08-07T02:26:18.818Z,96.50
2023-08-07T02:28:47.698Z,96.44
2023-08-07T02:31:15.712Z,96.30
2023-08-07T02:33:43.846Z,96.31
2023-08-07T02:36:11.690Z,96.35
2023-08-07T02:38:39.702Z,96.30
2023-08-07T02:41:07.478Z,96.23
2023-08-07T02:43:36.975Z,96.22
2023-08-07T02:46:06.792Z,96.22
2023-08-07T02:48:34.693Z,96.29
2023-08-07T02:51:02.467Z,96.32
2023-08-07T02:53:30.276Z,96.24
2023-08-07T02:55:58.167Z,96.28
2023-08-07T02:58:26.003Z,96.38
2023-08-07T03:00:54.066Z,96.45
2023-08-07T03:03:21.852Z,96.36
2023-08-07T03:05:52.345Z,96.35
2023-08-07T03:08:20.358Z,96.32
2023-08-07T03:10:58.187Z,96.27
2023-08-07T03:13:27.990Z,96.33
2023-08-07T03:16:08.864Z,96.31
2023-08-07T03:18:37.343Z,96.28
2023-08-07T03:21:05.493Z,96.34
2023-08-07T03:23:33.710Z,96.23
2023-08-07T03:26:19.035Z,96.27
2023-08-07T03:28:50.221Z,96.39
2023-08-07T03:31:18.979Z,96.34
2023-08-07T03:33:48.092Z,96.44
2023-08-07T03:36:18.005Z,96.40
2023-08-07T03:38:46.101Z,96.34
2023-08-07T03:41:14.001Z,96.41
2023-08-07T03:43:43.464Z,96.53
2023-08-07T03:46:13.143Z,96.44
2023-08-07T03:48:41.129Z,96.57
2023-08-07T03:51:10.246Z,96.43
2023-08-07T03:53:45.826Z,96.41
2023-08-07T03:56:13.708Z,96.38
2023-08-07T03:58:43.133Z,96.35
2023-08-07T04:01:12.383Z,96.42
2023-08-07T04:03:41.951Z,96.35
2023-08-07T04:06:11.926Z,96.42
2023-08-07T04:08:39.687Z,96.24
2023-08-07T04:11:09.731Z,96.39
2023-08-07T04:13:37.863Z,96.45
2023-08-07T04:16:07.361Z,96.36
2023-08-07T04:18:35.808Z,96.40
2023-08-07T04:21:04.460Z,96.33
2023-08-07T04:23:33.509Z,96.42
2023-08-07T04:26:02.165Z,96.32
2023-08-07T04:28:33.129Z,96.34
2023-08-07T04:31:01.020Z,96.32
2023-08-07T04:33:30.566Z,96.26
2023-08-07T04:35:58.660Z,96.27
2023-08-07T04:38:27.065Z,96.37
2023-08-07T04:40:55.209Z,96.37
2023-08-07T04:43:23.141Z,95.97
2023-08-07T04:45:51.294Z,96.25
2023-08-07T04:48:19.573Z,96.23
2023-08-07T04:50:47.412Z,96.41
2023-08-07T04:53:15.731Z,96.47
2023-08-07T04:55:43.696Z,96.33
2023-08-07T04:58:11.505Z,96.09
2023-08-07T05:00:39.244Z,96.13
2023-08-07T05:03:07.175Z,96.14
2023-08-07T05:05:35.156Z,96.13
2023-08-07T05:08:03.065Z,96.37
2023-08-07T05:10:31.291Z,96.26
2023-08-07T05:12:59.205Z,96.12
2023-08-07T05:15:29.846Z,96.18
2023-08-07T05:17:58.042Z,96.11
2023-08-07T05:20:26.011Z,96.04
2023-08-07T05:22:53.948Z,96.25
2023-08-07T05:25:22.358Z,96.19
2023-08-07T05:27:50.455Z,96.29
2023-08-07T05:30:18.888Z,96.26
2023-08-07T05:32:47.078Z,96.17
2023-08-07T05:35:15.628Z,95.93
2023-08-07T05:37:43.616Z,96.16
2023-08-07T05:40:13.303Z,96.22
2023-08-07T05:42:42.934Z,96.22
2023-08-07T05:45:12.362Z,96.03
2023-08-07T05:47:40.558Z,96.03
2023-08-07T05:50:09.869Z,96.01
2023-08-07T05:52:37.667Z,96.16
2023-08-07T05:55:09.330Z,96.22
2023-08-07T05:57:37.172Z,95.94
2023-08-07T06:00:07.116Z,96.13
2023-08-07T06:02:41.596Z,96.10
2023-08-07T06:05:10.800Z,96.24
2023-08-07T06:07:38.633Z,96.23
2023-08-07T06:10:08.090Z,96.35
2023-08-07T06:12:36.645Z,96.15
2023-08-07T06:15:05.359Z,96.16
2023-08-07T06:17:33.306Z,96.25
2023-08-07T06:20:01.003Z,96.30
2023-08-07T06:22:28.738Z,96.22
2023-08-07T06:24:56.445Z,96.07
2023-08-07T06:27:24.431Z,96.07
2023-08-07T06:29:52.321Z,96.06
2023-08-07T06:32:20.105Z,95.84
2023-08-07T06:34:48.080Z,96.03
2023-08-07T06:37:15.765Z,96.18
2023-08-07T06:39:43.701Z,96.00
2023-08-07T06:42:11.609Z,95.92
2023-08-07T06:44:39.512Z,95.78
2023-08-07T06:47:09.923Z,95.88
2023-08-07T06:49:38.846Z,95.84
2023-08-07T06:52:07.821Z,95.88
2023-08-07T06:54:35.892Z,95.92
2023-08-07T06:57:04.173Z,95.92
2023-08-07T06:59:31.863Z,95.94
2023-08-07T07:01:59.966Z,95.91
2023-08-07T07:04:29.260Z,95.88
2023-08-07T07:06:57.107Z,95.99
2023-08-07T07:09:24.952Z,95.89
2023-08-07T07:11:52.761Z,95.79
2023-08-07T07:14:20.699Z,95.92
2023-08-07T07:16:50.305Z,96.06
2023-08-07T07:19:18.378Z,96.03
2023-08-07T07:21:48.722Z,96.08
2023-08-07T07:24:16.643Z,96.15
2023-08-07T07:26:44.644Z,95.95
2023-08-07T07:29:12.588Z,96.07
2023-08-07T07:31:40.735Z,96.12
2023-08-07T07:34:11.293Z,96.06
2023-08-07T07:36:39.260Z,96.08
2023-08-07T07:39:08.235Z,95.92
2023-08-07T07:41:36.331Z,95.75
2023-08-07T07:44:04.270Z,95.97
2023-08-07T07:46:33.685Z,96.05
2023-08-07T07:49:04.322Z,96.01
2023-08-07T07:51:33.854Z,95.92
2023-08-07T07:56:36.288Z,95.80
2023-08-07T07:59:04.501Z,95.58
2023-08-07T08:01:32.325Z,95.66
2023-08-07T08:04:00.207Z,95.42
2023-08-07T08:06:28.617Z,95.59
2023-08-07T08:08:56.495Z,95.23
2023-08-07T08:11:25.852Z,95.43
2023-08-07T08:13:53.770Z,95.37
2023-08-07T08:16:22.450Z,95.39
2023-08-07T08:18:50.516Z,95.28
2023-08-07T08:21:18.247Z,95.31
2023-08-07T08:23:46.207Z,95.33
2023-08-07T08:26:14.003Z,95.08
2023-08-07T08:28:42.248Z,95.02
2023-08-07T08:31:10.862Z,95.17
2023-08-07T08:33:41.536Z,94.96
2023-08-07T08:36:09.398Z,94.84
2023-08-07T08:38:38.799Z,95.00
2023-08-07T08:41:11.108Z,94.92
2023-08-07T08:43:46.914Z,94.78
2023-08-07T08:46:21.557Z,94.48
2023-08-07T08:49:00.339Z,94.46
2023-08-07T08:51:28.884Z,94.18
2023-08-07T08:53:58.168Z,93.64
2023-08-07T08:56:27.112Z,92.50
2023-08-07T08:58:55.409Z,91.18
2023-08-07T09:01:26.586Z,90.65
2023-08-07T09:03:58.530Z,90.56
2023-08-07T09:06:33.874Z,90.05
2023-08-07T09:09:03.950Z,90.72
2023-08-07T09:11:34.630Z,91.14
2023-08-07T09:14:04.935Z,88.74
2023-08-07T09:16:34.919Z,86.76
2023-08-07T09:19:05.458Z,86.84
2023-08-07T09:21:35.047Z,87.16
2023-08-07T09:24:02.940Z,88.64
2023-08-07T09:26:37.063Z,88.09
2023-08-07T09:29:05.663Z,87.60
2023-08-07T09:31:34.276Z,89.06
2023-08-07T09:34:06.538Z,87.05
2023-08-07T09:36:36.123Z,87.98
2023-08-07T09:39:05.988Z,89.02
2023-08-07T09:41:35.633Z,87.86
2023-08-07T09:44:12.326Z,89.04
2023-08-07T09:46:46.002Z,89.36
2023-08-07T09:49:15.088Z,91.01
2023-08-07T09:51:48.575Z,92.20
2023-08-07T09:54:16.935Z,93.21
2023-08-07T09:56:48.839Z,93.33
2023-08-07T09:59:17.886Z,93.19
2023-08-07T10:01:47.206Z,92.78
2023-08-07T10:04:17.228Z,92.46
2023-08-07T10:06:48.182Z,93.60
2023-08-07T10:09:16.399Z,92.44
2023-08-07T10:11:45.217Z,92.54
2023-08-07T10:14:16.057Z,91.44
2023-08-07T10:16:46.810Z,90.97
2023-08-07T10:19:15.103Z,91.08
2023-08-07T10:21:46.427Z,90.53
2023-08-07T10:24:19.224Z,91.54
2023-08-07T10:26:52.262Z,92.76
2023-08-07T10:29:25.138Z,90.60
2023-08-07T10:31:57.358Z,89.77
2023-08-07T10:34:25.588Z,90.17
2023-08-07T10:36:53.521Z,88.36
2023-08-07T10:39:22.470Z,90.51
2023-08-07T10:41:56.447Z,89.03
2023-08-07T10:44:32.349Z,88.08
2023-08-07T10:47:02.630Z,88.05
2023-08-07T10:49:37.689Z,84.64
2023-08-07T10:52:16.689Z,86.89
2023-08-07T10:54:51.472Z,86.04
2023-08-07T10:57:20.798Z,86.30
2023-08-07T10:59:57.819Z,88.37
2023-08-07T11:02:34.477Z,88.16
2023-08-07T11:05:03.485Z,86.19
2023-08-07T11:07:33.029Z,86.70
2023-08-07T11:10:02.024Z,86.18
2023-08-07T11:12:31.121Z,85.48
2023-08-07T11:14:59.306Z,86.03
2023-08-07T11:17:31.354Z,84.65
2023-08-07T11:20:00.715Z,85.13
2023-08-07T11:22:28.762Z,83.22
2023-08-07T11:24:56.965Z,85.83
2023-08-07T11:27:28.513Z,82.39
2023-08-07T11:29:57.475Z,81.43
2023-08-07T11:32:25.507Z,81.39
2023-08-07T11:34:53.546Z,81.86
2023-08-07T11:37:21.767Z,76.98
2023-08-07T11:39:50.316Z,79.55
2023-08-07T11:42:24.089Z,78.00
2023-08-07T11:44:52.382Z,75.54
2023-08-07T11:47:21.349Z,76.66
2023-08-07T11:49:49.798Z,73.37
2023-08-07T11:52:18.336Z,73.93
2023-08-07T11:54:50.404Z,74.74
2023-08-07T11:57:27.581Z,73.55
2023-08-07T11:59:55.829Z,73.44
2023-08-07T12:02:27.306Z,75.69
2023-08-07T12:05:00.719Z,73.96
2023-08-07T12:07:33.652Z,74.84
2023-08-07T12:10:10.869Z,74.98
2023-08-07T12:12:40.044Z,73.25
2023-08-07T12:15:12.406Z,74.16
2023-08-07T12:17:41.197Z,72.22
2023-08-07T12:20:12.944Z,74.45
2023-08-07T12:22:40.845Z,72.15
2023-08-07T12:25:09.739Z,72.14
2023-08-07T12:27:39.321Z,73.35
2023-08-07T12:30:08.916Z,73.55
2023-08-07T12:32:36.921Z,70.61
2023-08-07T12:37:40.906Z,71.61
2023-08-07T12:42:41.413Z,73.67
2023-08-07T12:45:10.450Z,74.31
2023-08-07T12:47:38.909Z,72.11
2023-08-07T12:50:07.883Z,73.24
2023-08-07T12:52:36.730Z,70.34
2023-08-07T12:55:07.005Z,70.10
2023-08-07T12:57:34.929Z,67.39
2023-08-07T13:00:03.331Z,68.17
2023-08-07T13:02:31.660Z,69.49
2023-08-07T13:04:59.665Z,66.58
2023-08-07T13:07:27.726Z,67.35
2023-08-07T13:09:56.805Z,67.96
2023-08-07T13:12:25.156Z,69.15
2023-08-07T13:14:53.044Z,68.02
2023-08-07T13:17:20.828Z,70.35
2023-08-07T13:19:49.099Z,66.44
2023-08-07T13:22:17.669Z,68.33
2023-08-07T13:24:46.545Z,70.01
2023-08-07T13:27:16.314Z,66.82
2023-08-07T13:29:50.039Z,69.41
2023-08-07T13:32:22.522Z,69.88
2023-08-07T13:34:53.880Z,68.72
2023-08-07T13:37:25.815Z,66.59
2023-08-07T13:39:55.585Z,65.61
2023-08-07T13:42:28.748Z,66.78
2023-08-07T13:44:57.694Z,68.60
2023-08-07T13:47:27.237Z,68.21
2023-08-07T13:49:55.998Z,67.28
2023-08-07T13:52:23.860Z,66.78
2023-08-07T13:54:52.540Z,66.53
2023-08-07T13:57:20.588Z,67.60
2023-08-07T13:59:49.136Z,68.52
2023-08-07T14:02:17.156Z,67.38
2023-08-07T14:04:46.993Z,67.74
2023-08-07T14:07:14.934Z,65.48
2023-08-07T14:09:44.290Z,65.23
2023-08-07T14:12:12.320Z,65.11
2023-08-07T14:14:40.441Z,66.15
2023-08-07T14:17:08.625Z,66.23
2023-08-07T14:19:36.586Z,63.38
2023-08-07T14:22:05.189Z,63.12
2023-08-07T14:24:33.571Z,64.78
2023-08-07T14:27:01.600Z,65.44
2023-08-07T14:29:29.677Z,65.80
2023-08-07T14:31:57.630Z,62.91
2023-08-07T14:34:25.798Z,61.34
2023-08-07T14:36:55.555Z,59.26
2023-08-07T14:39:24.621Z,60.72
2023-08-07T14:41:53.588Z,61.30
2023-08-07T14:44:21.522Z,64.03
2023-08-07T14:46:50.814Z,62.58
2023-08-07T14:49:24.002Z,64.39
2023-08-07T14:51:53.464Z,61.34
2023-08-07T14:54:21.204Z,63.05
2023-08-07T14:56:49.285Z,61.68
2023-08-07T14:59:17.247Z,62.01
2023-08-07T15:01:45.180Z,59.81
2023-08-07T15:04:13.299Z,57.39
2023-08-07T15:06:48.302Z,56.91
2023-08-07T15:09:18.266Z,60.82
2023-08-07T15:11:47.614Z,60.95
2023-08-07T15:14:15.688Z,61.78
2023-08-07T15:16:43.828Z,63.07
2023-08-07T15:19:12.398Z,62.61
2023-08-07T15:21:40.337Z,60.13
2023-08-07T15:24:08.505Z,60.40
2023-08-07T15:26:36.401Z,58.32
2023-08-07T15:29:05.723Z,57.15
2023-08-07T15:31:34.153Z,58.39
2023-08-07T15:34:02.284Z,57.27
2023-08-07T15:36:30.289Z,59.67
2023-08-07T15:38:58.727Z,61.11
2023-08-07T15:41:26.636Z,59.83
2023-08-07T15:43:54.733Z,59.93
2023-08-07T15:46:22.529Z,59.38
2023-08-07T15:48:51.721Z,60.37
2023-08-07T15:51:20.925Z,57.22
2023-08-07T15:53:48.699Z,55.87
2023-08-07T15:56:16.596Z,56.28
2023-08-07T15:58:44.448Z,55.64
2023-08-07T16:01:12.422Z,55.68
2023-08-07T16:03:40.551Z,57.74
2023-08-07T16:06:10.248Z,54.67
2023-08-07T16:08:38.798Z,52.66
2023-08-07T16:11:08.004Z,53.12
2023-08-07T16:13:36.084Z,52.80
2023-08-07T16:16:04.328Z,53.61
2023-08-07T16:18:32.315Z,55.12
2023-08-07T16:21:00.144Z,58.45
2023-08-07T16:23:28.555Z,57.14
2023-08-07T16:25:56.497Z,59.48
2023-08-07T16:28:24.693Z,62.04
2023-08-07T16:30:52.568Z,62.24
2023-08-07T16:33:20.912Z,63.89
2023-08-07T16:35:48.790Z,64.68
2023-08-07T16:38:16.672Z,65.88
2023-08-07T16:40:44.414Z,62.89
2023-08-07T16:43:13.167Z,63.52
2023-08-07T16:45:41.515Z,65.34
2023-08-07T16:48:09.591Z,64.52
2023-08-07T16:50:39.491Z,66.79
2023-08-07T16:53:10.236Z,66.53
2023-08-07T16:55:38.300Z,68.58
2023-08-07T16:58:09.696Z,68.47
2023-08-07T17:00:48.787Z,68.63
2023-08-07T17:03:21.102Z,69.50
2023-08-07T17:06:03.733Z,65.64
2023-08-07T17:08:36.186Z,66.50
2023-08-07T17:11:05.958Z,69.05
2023-08-07T17:13:33.704Z,70.27
2023-08-07T17:16:01.552Z,69.74
2023-08-07T17:18:32.408Z,69.37
2023-08-07T17:21:01.624Z,69.74
2023-08-07T17:23:29.494Z,67.57
2023-08-07T17:26:02.869Z,68.85
2023-08-07T17:28:32.604Z,68.45
2023-08-07T17:31:03.518Z,68.23
2023-08-07T17:33:32.088Z,66.80
2023-08-07T17:36:00.374Z,66.92
2023-08-07T17:38:28.799Z,67.53
2023-08-07T17:40:56.517Z,66.84
2023-08-07T17:43:24.498Z,66.70
2023-08-07T17:45:52.408Z,64.62
2023-08-07T17:48:20.353Z,65.58
2023-08-07T17:50:49.521Z,66.42
2023-08-07T17:53:17.776Z,66.89
2023-08-07T17:55:45.606Z,67.50
2023-08-07T17:58:14.059Z,67.04
2023-08-07T18:00:45.089Z,68.63
2023-08-07T18:03:13.151Z,69.09
2023-08-07T18:05:41.046Z,68.90
2023-08-07T18:08:09.129Z,69.83
2023-08-07T18:10:37.405Z,70.14
2023-08-07T18:13:05.871Z,71.38
2023-08-07T18:15:33.871Z,71.58
2023-08-07T18:18:01.592Z,71.15
2023-08-07T18:20:29.601Z,71.33
2023-08-07T18:22:57.610Z,72.32
2023-08-07T18:25:25.827Z,73.44
2023-08-07T18:27:53.939Z,72.22
2023-08-07T18:30:21.710Z,72.68
2023-08-07T18:32:50.613Z,74.19
2023-08-07T18:35:19.696Z,73.28
2023-08-07T18:37:47.470Z,74.81
2023-08-07T18:40:15.797Z,75.43
2023-08-07T18:42:44.338Z,74.90
2023-08-07T18:45:12.438Z,75.34
2023-08-07T18:47:40.706Z,75.94
2023-08-07T18:50:09.884Z,77.00
2023-08-07T18:52:37.837Z,76.11
2023-08-07T18:55:06.612Z,77.23
2023-08-07T18:57:34.539Z,76.70
2023-08-07T19:00:02.427Z,77.58
2023-08-07T19:02:30.488Z,77.81
2023-08-07T19:04:58.432Z,76.72
2023-08-07T19:07:26.160Z,76.90
2023-08-07T19:09:54.202Z,76.43
2023-08-07T19:12:22.178Z,76.61
2023-08-07T19:14:50.177Z,76.96
2023-08-07T19:17:18.351Z,78.01
2023-08-07T19:19:46.369Z,78.28
2023-08-07T19:22:14.685Z,78.97
2023-08-07T19:24:42.546Z,79.32
2023-08-07T19:27:10.498Z,79.16
2023-08-07T19:29:38.176Z,79.18
2023-08-07T19:32:06.852Z,79.36
2023-08-07T19:34:35.867Z,79.39
2023-08-07T19:37:04.809Z,79.33
2023-08-07T19:39:32.693Z,79.85
2023-08-07T19:42:00.501Z,80.45
2023-08-07T19:44:28.322Z,80.72
2023-08-07T19:46:56.470Z,81.44
2023-08-07T19:49:24.541Z,81.12
2023-08-07T19:51:52.284Z,80.89
2023-08-07T19:54:20.444Z,81.41
2023-08-07T19:56:48.724Z,81.74
2023-08-07T19:59:16.506Z,81.62
2023-08-07T20:01:44.427Z,82.02
2023-08-07T20:04:14.786Z,82.27
2023-08-07T20:06:43.147Z,82.68
2023-08-07T20:09:11.101Z,82.86
2023-08-07T20:11:39.380Z,83.10
2023-08-07T20:14:07.571Z,82.93
2023-08-07T20:16:36.035Z,83.21
2023-08-07T20:19:04.116Z,83.15
2023-08-07T20:21:32.280Z,83.21
2023-08-07T20:24:00.239Z,83.29
2023-08-07T20:26:28.334Z,83.52
2023-08-07T20:28:58.657Z,83.66
2023-08-07T20:31:26.820Z,83.75
2023-08-07T20:33:59.484Z,83.86
2023-08-07T20:36:30.866Z,83.56
2023-08-07T20:38:58.928Z,84.07
2023-08-07T20:41:27.125Z,84.19
2023-08-07T20:43:55.166Z,84.18
2023-08-07T20:46:23.852Z,83.55
2023-08-07T20:48:53.528Z,83.12
2023-08-07T20:51:21.961Z,83.61
2023-08-07T20:53:49.919Z,83.72
2023-08-07T20:56:19.343Z,83.59
2023-08-07T20:58:47.259Z,83.71
2023-08-07T21:01:15.261Z,84.02
2023-08-07T21:03:43.170Z,83.76
2023-08-07T21:06:11.032Z,83.39
2023-08-07T21:08:38.925Z,83.58
2023-08-07T21:11:07.349Z,83.53
2023-08-07T21:13:39.233Z,84.00
2023-08-07T21:16:07.399Z,84.42
2023-08-07T21:18:35.420Z,84.87
2023-08-07T21:21:03.303Z,85.28
2023-08-07T21:23:32.451Z,85.11
2023-08-07T21:26:01.329Z,84.65
2023-08-07T21:28:29.071Z,85.33
2023-08-07T21:30:57.133Z,84.97
2023-08-07T21:33:25.158Z,85.09
2023-08-07T21:35:53.296Z,85.24
2023-08-07T21:38:21.364Z,85.43
2023-08-07T21:40:49.183Z,85.52
2023-08-07T21:43:17.075Z,85.65
2023-08-07T21:45:45.657Z,85.47
2023-08-07T21:48:13.494Z,85.37
2023-08-07T21:50:41.325Z,85.21
2023-08-07T21:53:09.115Z,85.96
2023-08-07T21:55:36.967Z,86.28
2023-08-07T21:58:05.420Z,86.51
2023-08-07T22:00:33.234Z,86.36
2023-08-07T22:03:01.293Z,86.70
2023-08-07T22:05:29.158Z,86.33
2023-08-07T22:07:57.216Z,86.60
2023-08-07T22:10:25.161Z,86.55
2023-08-07T22:12:52.971Z,86.73
2023-08-07T22:15:20.762Z,86.92
2023-08-07T22:17:49.077Z,86.49
2023-08-07T22:20:18.572Z,86.57
2023-08-07T22:22:46.335Z,86.28
2023-08-07T22:25:14.316Z,86.44
2023-08-07T22:27:42.511Z,86.28
2023-08-07T22:30:11.564Z,86.22
2023-08-07T22:32:39.437Z,85.97
2023-08-07T22:35:08.868Z,85.98
2023-08-07T22:37:36.815Z,85.79
2023-08-07T22:40:06.255Z,85.64
2023-08-07T22:42:33.996Z,86.73
2023-08-07T22:45:01.980Z,85.24
2023-08-07T22:47:29.949Z,85.94
2023-08-07T22:50:01.283Z,84.95
2023-08-07T22:52:30.423Z,84.93
2023-08-07T22:54:58.177Z,84.30
2023-08-07T22:57:26.441Z,84.34
2023-08-07T22:59:54.255Z,84.20
2023-08-07T23:02:22.413Z,84.14
2023-08-07T23:04:50.355Z,83.79
2023-08-07T23:07:18.317Z,83.35
2023-08-07T23:09:46.222Z,82.79
2023-08-07T23:12:15.377Z,82.54
2023-08-07T23:14:44.536Z,82.46
2023-08-07T23:17:12.507Z,82.18
2023-08-07T23:19:40.394Z,81.75
2023-08-07T23:22:08.205Z,81.79
2023-08-07T23:24:36.095Z,81.89
2023-08-07T23:27:05.024Z,82.20
2023-08-07T23:29:33.197Z,82.47
2023-08-07T23:32:01.408Z,82.22
2023-08-07T23:34:29.467Z,82.06
2023-08-07T23:36:57.527Z,82.18
2023-08-07T23:39:25.235Z,82.42
2023-08-07T23:41:53.513Z,82.32
2023-08-07T23:44:21.340Z,82.51
2023-08-07T23:46:49.364Z,82.53
2023-08-07T23:49:17.429Z,82.69
2023-08-07T23:51:45.333Z,82.49
2023-08-07T23:54:13.497Z,82.32
2023-08-07T23:56:41.490Z,82.13
2023-08-07T23:59:09.347Z,82.18
